Time;durP1;ratioP1;P1;durP2;ratioP2;P2;SDS_P1;SDS_P2;PMS_P1;PMS_P2;Temp;Humidity;BMP_temperature;BMP_pressure;BME280_temperature;BME280_humidity;BME280_pressure;Samples;Min_cycle;Max_cycle;Signal;HPM_P1;HPM_P2
2023/03/14 00:12:38;;;;;;;4.97;3.13;;;;;;;5.08;74.37;100989.25;31363950;28;20429;-76
2023/03/14 00:27:40;;;;;;;4.63;2.73;;;;;;;5.02;73.68;100977.22;31335572;28;20057;-76
2023/03/14 00:42:42;;;;;;;5.20;3.47;;;;;;;4.93;73.09;100974.03;31354246;28;20057;-75
2023/03/14 00:57:48;;;;;;;;;;;;;;;4.58;77.77;100973.38;31322429;28;20061;-78
2023/03/14 01:12:50;;;;;;;9.60;4.80;;;;;;;4.36;80.37;100970.28;31315037;28;20366;-77
2023/03/14 01:27:52;;;;;;;9.27;3.90;;;;;;;4.28;80.89;100965.91;31349737;28;20049;-75
2023/03/14 01:43:05;;;;;;;8.47;4.60;;;;;;;4.29;81.86;100972.81;31352151;28;20572;-77
2023/03/14 01:58:08;;;;;;;6.10;3.87;;;;;;;4.20;84.15;100984.94;31334579;28;20084;-75
2023/03/14 02:13:11;;;;;;;9.83;4.30;;;;;;;4.17;84.75;100986.44;31328111;28;20053;-75
2023/03/14 02:28:14;;;;;;;8.17;4.53;;;;;;;4.07;83.78;100981.59;31347387;28;20053;-75
2023/03/14 02:43:16;;;;;;;7.40;4.00;;;;;;;3.89;84.39;100985.81;31286155;28;20118;-75
2023/03/14 02:58:19;;;;;;;7.10;3.50;;;;;;;4.02;83.30;100979.19;31348951;28;20107;-76
2023/03/14 03:13:24;;;;;;;7.87;3.23;;;;;;;4.00;81.29;100984.16;31352107;28;20049;-75
2023/03/14 03:28:26;;;;;;;4.83;2.33;;;;;;;4.02;80.21;100973.81;31361537;28;20433;-77
2023/03/14 03:43:28;;;;;;;3.23;2.33;;;;;;;3.92;78.81;100974.38;31353111;28;20118;-76
2023/03/14 03:58:30;;;;;;;3.80;3.00;;;;;;;3.90;77.90;100982.00;31348562;28;20418;-76
2023/03/14 04:13:32;;;;;;;3.70;2.87;;;;;;;3.90;75.47;100984.69;31353423;28;20041;-75
2023/03/14 04:28:36;;;;;;;5.60;2.50;;;;;;;4.03;74.65;100991.50;31328586;28;20045;-75
2023/03/14 04:43:38;;;;;;;5.93;2.50;;;;;;;4.32;73.14;100985.56;31347922;28;20446;-75
2023/03/14 04:58:40;;;;;;;4.50;2.87;;;;;;;4.88;69.54;100984.31;31334352;28;20605;-75
2023/03/14 05:13:42;;;;;;;6.93;3.17;;;;;;;5.72;66.52;100998.31;31331519;28;20072;-76
2023/03/14 05:28:44;;;;;;;5.03;2.90;;;;;;;6.43;63.81;100993.88;31349959;28;20053;-75
2023/03/14 05:44:02;;;;;;;5.37;3.17;;;;;;;7.21;61.72;100993.09;31341632;28;20061;-77
2023/03/14 05:59:13;;;;;;;6.73;3.50;;;;;;;8.40;58.79;100986.88;31320135;28;20049;-76
2023/03/14 06:14:15;;;;;;;7.13;3.60;;;;;;;9.36;57.23;100980.81;31338571;28;20118;-76
2023/03/14 06:29:17;;;;;;;5.93;3.70;;;;;;;11.07;55.55;100973.53;31344114;28;20041;-77
2023/03/14 06:44:19;;;;;;;6.17;3.57;;;;;;;11.92;53.54;100991.00;31347858;28;20049;-76
2023/03/14 06:59:21;;;;;;;4.87;3.40;;;;;;;12.18;53.28;100989.53;31339950;28;20110;-76
2023/03/14 07:14:23;;;;;;;5.90;3.23;;;;;;;12.86;53.02;100981.22;31318888;28;20049;-77
2023/03/14 07:29:25;;;;;;;9.00;3.43;;;;;;;13.12;50.99;100994.03;31317707;28;20484;-77
2023/03/14 07:44:27;;;;;;;6.80;4.03;;;;;;;13.62;48.23;100955.81;31285695;28;20514;-76
2023/03/14 07:59:30;;;;;;;7.47;4.20;;;;;;;13.28;46.89;100977.06;31331723;28;20052;-77
2023/03/14 08:14:31;;;;;;;8.80;4.50;;;;;;;14.04;46.33;100949.94;31377544;28;20497;-78
2023/03/14 08:29:33;;;;;;;9.37;4.77;;;;;;;14.89;44.60;100951.56;31360294;28;20075;-79
2023/03/14 08:44:36;;;;;;;9.57;4.90;;;;;;;15.36;43.03;100938.28;31330405;28;20056;-78
2023/03/14 08:59:37;;;;;;;9.83;4.63;;;;;;;16.25;41.07;100911.19;31336752;28;20045;-77
2023/03/14 09:14:39;;;;;;;5.83;4.10;;;;;;;16.53;40.13;100897.81;31341678;28;20148;-83
2023/03/14 09:29:42;;;;;;;5.53;3.73;;;;;;;15.99;39.40;100866.56;31337257;28;20052;-85
2023/03/14 09:44:57;;;;;;;10.33;4.83;;;;;;;16.64;39.99;100837.97;31368046;28;20080;-83
2023/03/14 10:00:13;;;;;;;7.30;5.00;;;;;;;17.37;40.25;100811.91;31318288;28;20087;-86
2023/03/14 10:15:27;;;;;;;11.50;5.67;;;;;;;17.83;39.42;100781.19;31362491;28;20498;-85
2023/03/14 10:30:55;;;;;;;7.97;5.20;;;;;;;17.68;38.46;100742.56;31345007;28;20080;-83
2023/03/14 10:46:02;;;;;;;5.53;4.00;;;;;;;17.25;37.90;100713.94;31323557;28;20114;-86
2023/03/14 11:01:32;;;;;;;5.87;3.67;;;;;;;17.84;37.73;100676.41;31311218;28;20058;-81
2023/03/14 11:16:55;;;;;;;6.37;3.37;;;;;;;18.23;36.47;100647.28;31337077;28;20041;-76
2023/03/14 11:32:10;;;;;;;6.57;2.90;;;;;;;18.21;36.19;100629.72;31331379;28;20045;-77
2023/03/14 11:47:37;;;;;;;4.03;3.17;;;;;;;20.05;33.29;100604.66;31359576;28;20056;-75
2023/03/14 12:02:53;;;;;;;3.20;2.10;;;;;;;20.32;32.59;100583.56;31353383;28;20053;-76
2023/03/14 12:17:55;;;;;;;4.05;2.20;;;;;;;18.62;33.74;100582.41;31336016;28;20081;-80
2023/03/14 12:33:10;;;;;;;7.17;2.43;;;;;;;15.13;37.71;100569.31;31350903;28;20110;-83
2023/03/14 12:48:23;;;;;;;6.03;2.78;;;;;;;13.92;38.52;100537.25;31342396;28;20111;-81
2023/03/14 13:03:36;;;;;;;3.70;2.27;;;;;;;13.71;38.16;100521.44;31331479;28;20056;-84
2023/03/14 13:18:43;;;;;;;4.60;2.60;;;;;;;13.51;37.82;100507.13;31314038;28;20049;-82
2023/03/14 13:33:45;;;;;;;9.37;2.73;;;;;;;13.39;37.92;100469.69;31335102;28;20045;-75
2023/03/14 13:48:53;;;;;;;1.97;1.83;;;;;;;13.36;37.02;100451.44;31358326;28;20061;-77
2023/03/14 14:03:57;;;;;;;5.70;2.37;;;;;;;13.30;36.99;100427.41;31361659;28;20053;-77
2023/03/14 14:19:01;;;;;;;4.30;2.43;;;;;;;13.26;35.81;100410.38;31362423;28;20098;-77
2023/03/14 14:34:04;;;;;;;6.40;2.53;;;;;;;13.18;35.75;100403.59;31339508;28;20045;-76
2023/03/14 14:49:12;;;;;;;2.93;1.63;;;;;;;13.18;35.41;100403.59;31344748;28;20056;-76
2023/03/14 15:04:14;;;;;;;5.53;2.20;;;;;;;13.01;35.32;100388.41;31347010;28;20045;-81
2023/03/14 15:19:23;;;;;;;3.00;2.33;;;;;;;12.83;35.88;100393.53;31355149;28;20057;-87
2023/03/14 15:34:27;;;;;;;5.20;2.83;;;;;;;12.68;36.87;100386.91;31351464;28;20045;-84
2023/03/14 15:49:29;;;;;;;4.60;2.43;;;;;;;12.45;38.44;100385.88;31361282;28;20083;-86
2023/03/14 16:04:31;;;;;;;6.30;2.37;;;;;;;12.10;41.39;100387.41;31349454;28;20041;-81
2023/03/14 16:19:34;;;;;;;5.50;2.53;;;;;;;11.82;45.34;100396.91;31369917;28;20084;-85
2023/03/14 16:34:39;;;;;;;4.67;1.93;;;;;;;11.59;50.96;100402.38;31359566;28;20498;-79
2023/03/14 16:49:41;;;;;;;6.97;2.47;;;;;;;11.33;58.03;100411.44;31382582;28;20065;-87
2023/03/14 17:04:43;;;;;;;6.27;4.20;;;;;;;11.19;59.28;100413.22;31348917;28;20071;-88
2023/03/14 17:19:59;;;;;;;7.17;3.67;;;;;;;11.14;60.07;100408.25;31336404;28;20049;-84
2023/03/14 17:35:01;;;;;;;6.47;2.93;;;;;;;10.85;62.17;100399.06;31340303;28;20546;-89
2023/03/14 17:50:10;;;;;;;6.60;3.57;;;;;;;10.85;65.50;100393.63;31362272;28;20168;-87
2023/03/14 18:05:30;;;;;;;6.90;3.73;;;;;;;10.87;67.00;100364.84;31352602;28;20060;-84
2023/03/14 18:20:52;;;;;;;7.47;4.13;;;;;;;10.68;72.58;100340.34;31316208;28;20049;-83
2023/03/14 18:35:54;;;;;;;10.73;6.57;;;;;;;10.64;75.54;100342.34;31392038;28;20120;-81
2023/03/14 18:51:02;;;;;;;6.90;3.70;;;;;;;10.72;77.60;100330.22;31346107;28;20087;-81
2023/03/14 19:06:06;;;;;;;13.20;4.10;;;;;;;10.68;77.07;100316.69;31362381;28;20143;-81
2023/03/14 19:21:12;;;;;;;9.63;5.40;;;;;;;10.56;79.86;100312.63;31289205;28;20051;-77
2023/03/14 19:36:25;;;;;;;10.57;5.53;;;;;;;10.42;84.43;100307.41;31327456;28;20608;-78
2023/03/14 19:51:31;;;;;;;6.57;4.07;;;;;;;10.52;93.16;100295.63;31318165;28;20056;-77
2023/03/14 20:06:33;;;;;;;10.63;4.00;;;;;;;10.62;99.19;100276.88;31355564;28;20060;-77
2023/03/14 20:21:35;;;;;;;10.07;4.53;;;;;;;10.53;100.00;100259.16;31353068;28;20143;-77
2023/03/14 20:36:37;;;;;;;8.80;4.13;;;;;;;10.61;100.00;100237.31;31357831;28;20537;-79
2023/03/14 20:51:39;;;;;;;10.07;4.47;;;;;;;10.51;100.00;100212.66;31346926;28;20502;-77
2023/03/14 21:06:41;;;;;;;6.70;3.33;;;;;;;10.50;100.00;100184.00;31345016;28;20048;-78
2023/03/14 21:21:43;;;;;;;6.23;4.03;;;;;;;10.32;100.00;100183.53;31363423;28;20564;-78
2023/03/14 21:36:45;;;;;;;4.93;2.80;;;;;;;10.23;100.00;100161.59;31366786;28;20154;-78
2023/03/14 21:51:51;;;;;;;3.57;2.77;;;;;;;10.06;100.00;100127.38;31337721;28;20050;-78
2023/03/14 22:06:53;;;;;;;4.73;3.40;;;;;;;10.02;100.00;100119.31;31326964;28;20053;-81
2023/03/14 22:21:55;;;;;;;7.73;3.40;;;;;;;9.89;100.00;100112.94;31332937;28;20455;-77
2023/03/14 22:37:02;;;;;;;4.37;2.87;;;;;;;9.86;100.00;100128.09;31308948;28;20425;-77
2023/03/14 22:52:04;;;;;;;5.43;2.87;;;;;;;9.78;100.00;100118.53;31285571;28;20049;-78
2023/03/14 23:07:06;;;;;;;6.50;3.30;;;;;;;9.69;100.00;100126.41;31316302;28;20052;-78
2023/03/14 23:22:08;;;;;;;5.57;3.23;;;;;;;9.68;100.00;100097.81;31300462;28;20049;-78
2023/03/14 23:37:13;;;;;;;6.30;3.00;;;;;;;9.54;100.00;100070.91;31326052;28;20053;-81
2023/03/14 23:52:17;;;;;;;5.53;2.57;;;;;;;9.35;100.00;100074.31;31336240;28;20049;-81
